Time;durP1;ratioP1;P1;durP2;ratioP2;P2;SDS_P1;SDS_P2;PMS_P1;PMS_P2;Temp;Humidity;BMP_temperature;BMP_pressure;BME280_temperature;BME280_humidity;BME280_pressure;Samples;Min_cycle;Max_cycle;Signal;HPM_P1;HPM_P2
2022/01/25 00:08:42;;;;;;;11.88;4.13;;;3.60;99.90;;;;;;4946492;28;20034;-62
2022/01/25 00:30:22;;;;;;;12.35;3.72;;;3.40;99.90;;;;;;4952725;28;20051;-63
2022/01/25 00:32:16;;;;;;;10.10;3.90;;;3.50;99.90;;;;;;4948156;28;20043;-62
2022/01/25 00:34:41;;;;;;;12.32;3.80;;;3.70;99.90;;;;;;4950099;28;20047;-63
2022/01/25 00:37:07;;;;;;;11.52;5.47;;;3.70;99.90;;;;;;4948663;28;20043;-62
2022/01/25 00:39:33;;;;;;;18.52;5.68;;;3.50;99.90;;;;;;4943167;28;20023;-62
2022/01/25 00:41:58;;;;;;;10.80;4.00;;;3.40;99.90;;;;;;4951323;28;20110;-62
2022/01/25 00:44:29;;;;;;;11.88;4.90;;;3.60;99.90;;;;;;4948558;28;20404;-62
2022/01/25 00:46:55;;;;;;;9.13;3.42;;;3.70;99.90;;;;;;4949770;28;20412;-63
2022/01/25 00:49:27;;;;;;;10.65;3.92;;;3.70;99.90;;;;;;4949546;28;20043;-62
2022/01/25 00:56:49;;;;;;;9.20;3.30;;;3.50;99.90;;;;;;4951527;28;20035;-63
2022/01/25 00:59:25;;;;;;;10.15;4.20;;;3.60;99.90;;;;;;4933033;28;20058;-63
2022/01/25 01:01:54;;;;;;;14.80;5.35;;;3.70;99.90;;;;;;4937533;28;20033;-63
2022/01/25 01:04:21;;;;;;;44.97;5.03;;;3.80;99.90;;;;;;4949252;28;20094;-62
2022/01/25 01:06:48;;;;;;;17.08;5.35;;;3.70;99.90;;;;;;4952904;28;20030;-62
2022/01/25 01:09:16;;;;;;;14.02;5.53;;;3.60;99.90;;;;;;4928861;28;20166;-62
2022/01/25 01:11:54;;;;;;;14.35;5.47;;;3.70;99.90;;;;;;4955469;28;20388;-63
2022/01/25 01:14:49;;;;;;;14.70;5.10;;;3.60;99.90;;;;;;4946255;28;20392;-62
2022/01/25 01:47:48;;;;;;;13.40;4.25;;;3.50;99.90;;;;;;4944108;28;20449;-63
2022/01/25 01:50:25;;;;;;;8.95;4.05;;;3.50;99.90;;;;;;4948126;28;20132;-63
2022/01/25 01:52:51;;;;;;;11.32;4.38;;;3.50;99.90;;;;;;4947042;28;20054;-63
2022/01/25 01:55:17;;;;;;;13.02;4.22;;;3.60;99.90;;;;;;4951371;28;20032;-62
2022/01/25 01:57:43;;;;;;;10.75;4.05;;;3.60;99.90;;;;;;4955459;28;20027;-62
2022/01/25 02:00:09;;;;;;;11.18;3.75;;;3.70;99.90;;;;;;4953243;28;20027;-62
2022/01/25 02:02:35;;;;;;;11.82;5.80;;;3.80;99.90;;;;;;4946791;28;20393;-63
2022/01/25 02:05:01;;;;;;;11.43;5.13;;;3.60;99.90;;;;;;4952124;28;20086;-63
2022/01/25 02:07:26;;;;;;;7.85;4.15;;;3.70;99.90;;;;;;4955042;28;20050;-63
2022/01/25 02:09:52;;;;;;;12.60;5.38;;;3.70;99.90;;;;;;4949277;28;20604;-62
2022/01/25 02:12:17;;;;;;;8.55;2.92;;;3.70;99.90;;;;;;4951423;28;20426;-63
2022/01/25 02:14:43;;;;;;;8.10;3.30;;;3.70;99.90;;;;;;4949400;28;20040;-62
2022/01/25 02:17:36;;;;;;;16.75;5.53;;;3.50;99.90;;;;;;4952751;28;20019;-62
2022/01/25 02:22:58;;;;;;;12.77;4.63;;;3.50;99.90;;;;;;4952875;28;20069;-63
2022/01/25 02:25:25;;;;;;;16.63;4.75;;;3.50;99.90;;;;;;4953186;28;20067;-62
2022/01/25 02:27:50;;;;;;;11.35;5.57;;;3.50;99.90;;;;;;4951830;28;20055;-63
2022/01/25 02:30:17;;;;;;;7.45;4.03;;;3.60;99.90;;;;;;4944069;28;20440;-63
2022/01/25 02:32:43;;;;;;;13.82;4.63;;;3.50;99.90;;;;;;4935686;29;20034;-62
2022/01/25 02:35:09;;;;;;;13.57;4.28;;;3.60;99.90;;;;;;4933176;29;20036;-63
2022/01/25 02:37:35;;;;;;;11.65;4.60;;;3.70;99.90;;;;;;4948965;28;20047;-63
2022/01/25 02:40:01;;;;;;;12.73;4.57;;;3.60;99.90;;;;;;4944559;28;20031;-63
2022/01/25 02:42:27;;;;;;;12.30;4.93;;;3.40;99.90;;;;;;4954868;28;20077;-63
2022/01/25 02:44:53;;;;;;;12.10;4.63;;;3.30;99.90;;;;;;4935857;29;20524;-62
2022/01/25 02:50:04;;;;;;;11.27;4.63;;;3.30;99.90;;;;;;4955905;28;20166;-62
2022/01/25 02:52:30;;;;;;;7.30;4.03;;;3.40;99.90;;;;;;4956748;28;20429;-62
2022/01/25 02:54:56;;;;;;;7.47;3.97;;;3.50;99.90;;;;;;4953816;28;20082;-62
2022/01/25 02:57:22;;;;;;;13.38;4.72;;;3.70;99.90;;;;;;4952291;28;20154;-62
2022/01/25 02:59:48;;;;;;;13.40;4.75;;;3.70;99.90;;;;;;4935728;28;20030;-63
2022/01/25 03:02:15;;;;;;;10.70;3.50;;;3.70;99.90;;;;;;4944690;28;20019;-63
2022/01/25 03:04:40;;;;;;;17.33;4.85;;;3.60;99.90;;;;;;4947038;28;20111;-62
2022/01/25 03:07:08;;;;;;;6.65;3.28;;;3.40;99.90;;;;;;4953927;28;20125;-62
2022/01/25 03:09:33;;;;;;;8.90;3.80;;;3.50;99.90;;;;;;4943829;28;20103;-62
2022/01/25 03:12:02;;;;;;;15.75;4.90;;;3.50;99.90;;;;;;4951925;28;20454;-63
2022/01/25 03:14:32;;;;;;;7.93;3.30;;;3.50;99.90;;;;;;4946084;28;20027;-63
2022/01/25 03:22:00;;;;;;;11.45;5.00;;;3.50;99.90;;;;;;4951865;28;20035;-62
2022/01/25 03:24:26;;;;;;;10.48;4.57;;;3.40;99.90;;;;;;4949049;28;20431;-63
2022/01/25 03:26:52;;;;;;;13.35;4.75;;;3.40;99.90;;;;;;4943482;28;20032;-62
2022/01/25 03:29:18;;;;;;;18.98;5.40;;;3.50;99.90;;;;;;4953608;28;20672;-62
2022/01/25 03:31:45;;;;;;;13.18;5.45;;;3.50;99.90;;;;;;4953088;28;20475;-63
2022/01/25 03:34:10;;;;;;;11.65;5.57;;;3.40;99.90;;;;;;4961254;28;20023;-62
2022/01/25 03:36:36;;;;;;;11.00;4.53;;;3.50;99.90;;;;;;4947586;28;20052;-63
2022/01/25 03:39:05;;;;;;;9.15;4.47;;;3.40;99.90;;;;;;4942459;28;20019;-63
2022/01/25 03:41:31;;;;;;;14.25;5.35;;;3.40;99.90;;;;;;4952388;28;20023;-62
2022/01/25 03:43:57;;;;;;;15.15;4.45;;;3.50;99.90;;;;;;4945671;28;20027;-62
2022/01/25 03:51:37;;;;;;;14.65;4.88;;;3.50;99.90;;;;;;4948615;28;20102;-63
2022/01/25 03:54:04;;;;;;;14.77;6.03;;;3.60;99.90;;;;;;4947749;28;20063;-62
2022/01/25 03:56:29;;;;;;;12.75;4.70;;;3.30;99.90;;;;;;4955086;28;20716;-63
2022/01/25 03:58:56;;;;;;;16.15;5.50;;;3.20;99.90;;;;;;4954302;28;20028;-62
2022/01/25 04:01:22;;;;;;;18.35;5.13;;;3.10;99.90;;;;;;4928922;28;20054;-63
2022/01/25 04:04:00;;;;;;;16.52;4.43;;;3.10;99.90;;;;;;4953729;28;20019;-62
2022/01/25 04:06:29;;;;;;;11.02;5.43;;;3.10;99.90;;;;;;4951526;28;20023;-62
2022/01/25 04:08:56;;;;;;;14.00;4.00;;;3.00;99.90;;;;;;4950836;28;20391;-62
2022/01/25 04:11:22;;;;;;;7.40;3.55;;;3.10;99.90;;;;;;4951176;28;20019;-63
2022/01/25 04:13:51;;;;;;;11.82;5.15;;;3.20;99.90;;;;;;4949801;28;20399;-63
2022/01/25 04:16:21;;;;;;;10.18;5.18;;;3.30;99.90;;;;;;4947499;28;20034;-62
2022/01/25 04:18:58;;;;;;;7.65;3.65;;;3.20;99.90;;;;;;4950351;28;20380;-63
2022/01/25 04:26:34;;;;;;;9.75;4.50;;;3.20;99.90;;;;;;4954476;28;20039;-63
2022/01/25 04:28:59;;;;;;;8.40;3.63;;;3.20;99.90;;;;;;4953552;28;20036;-62
2022/01/25 04:31:25;;;;;;;15.77;5.03;;;3.20;99.90;;;;;;4947776;28;20028;-63
2022/01/25 04:34:10;;;;;;;12.88;4.85;;;3.20;99.90;;;;;;4952996;28;20471;-63
2022/01/25 04:50:18;;;;;;;7.78;3.78;;;3.30;99.90;;;;;;4951445;28;20050;-62
2022/01/25 04:52:59;;;;;;;14.90;4.82;;;3.40;99.90;;;;;;4948891;28;20027;-62
2022/01/25 04:55:36;;;;;;;7.63;4.32;;;3.30;99.90;;;;;;4947677;28;20118;-62
2022/01/25 04:58:09;;;;;;;10.23;4.22;;;3.40;99.90;;;;;;4947659;28;20031;-62
2022/01/25 05:00:35;;;;;;;15.88;4.15;;;3.40;99.90;;;;;;4950674;28;20034;-62
2022/01/25 05:05:37;;;;;;;13.65;5.03;;;3.40;99.90;;;;;;4945597;28;20318;-63
2022/01/25 05:10:32;;;;;;;11.85;4.85;;;3.30;99.90;;;;;;4950832;28;20031;-63
2022/01/25 05:16:55;;;;;;;10.13;3.75;;;3.20;99.90;;;;;;4935607;29;20066;-63
2022/01/25 05:18:50;;;;;;;11.30;5.00;;;3.30;99.90;;;;;;4942943;29;20542;-63
2022/01/25 05:23:59;;;;;;;12.20;4.72;;;3.40;99.90;;;;;;4950026;28;20400;-63
2022/01/25 05:26:26;;;;;;;10.55;4.07;;;3.40;99.90;;;;;;4945850;28;20027;-62
2022/01/25 05:28:52;;;;;;;10.65;3.72;;;3.30;99.90;;;;;;4947336;28;20554;-64
2022/01/25 05:31:18;;;;;;;12.05;4.22;;;3.30;99.90;;;;;;4944647;28;20051;-63
2022/01/25 05:33:44;;;;;;;13.73;5.05;;;3.30;99.90;;;;;;4947866;28;20031;-63
2022/01/25 05:36:10;;;;;;;16.58;4.97;;;3.30;99.90;;;;;;4948268;28;20031;-62
2022/01/25 05:38:35;;;;;;;15.48;6.53;;;3.20;99.90;;;;;;4943227;28;20027;-63
2022/01/25 05:41:04;;;;;;;10.52;3.55;;;3.20;99.90;;;;;;4949679;28;20026;-63
2022/01/25 05:46:18;;;;;;;15.07;4.65;;;3.20;99.90;;;;;;4948786;28;20073;-63
2022/01/25 05:48:47;;;;;;;16.23;5.07;;;3.40;99.90;;;;;;4945185;28;20024;-62
2022/01/25 05:51:13;;;;;;;16.05;5.43;;;3.40;99.90;;;;;;4949767;28;20081;-63
2022/01/25 05:53:42;;;;;;;8.38;3.65;;;3.40;99.90;;;;;;4944468;28;20027;-63
2022/01/25 05:56:08;;;;;;;8.98;4.32;;;3.40;99.90;;;;;;4948757;28;20031;-63
2022/01/25 05:58:34;;;;;;;23.80;4.80;;;3.40;99.90;;;;;;4947990;28;20376;-63
2022/01/25 06:01:00;;;;;;;12.45;3.92;;;3.30;99.90;;;;;;4946836;28;20038;-62
2022/01/25 06:03:25;;;;;;;6.35;3.03;;;3.40;99.90;;;;;;4930928;29;20023;-63
2022/01/25 06:05:51;;;;;;;11.05;3.72;;;3.40;99.90;;;;;;4947602;28;20067;-63
2022/01/25 06:08:16;;;;;;;10.15;4.57;;;3.50;99.90;;;;;;4943847;28;20035;-62
2022/01/25 06:10:42;;;;;;;10.15;4.10;;;3.40;99.90;;;;;;4946610;28;20380;-63
2022/01/25 06:13:08;;;;;;;12.82;5.80;;;3.40;99.90;;;;;;4945855;28;20105;-63
2022/01/25 06:15:33;;;;;;;10.05;3.60;;;3.40;99.90;;;;;;4948916;28;20023;-63
2022/01/25 06:17:59;;;;;;;6.22;2.78;;;3.40;99.90;;;;;;4942689;28;20075;-63
2022/01/25 06:20:25;;;;;;;8.10;3.60;;;3.30;99.90;;;;;;4950263;28;20027;-63
2022/01/25 06:22:50;;;;;;;15.65;6.50;;;3.30;99.90;;;;;;4950732;28;20020;-64
2022/01/25 06:25:17;;;;;;;9.98;4.88;;;3.30;99.90;;;;;;4948387;28;20046;-63
2022/01/25 06:27:44;;;;;;;17.05;3.83;;;3.20;99.90;;;;;;4946556;28;20507;-63
2022/01/25 06:30:13;;;;;;;10.13;4.72;;;3.30;99.90;;;;;;4949508;28;20417;-63
2022/01/25 06:32:39;;;;;;;12.38;4.78;;;3.30;99.90;;;;;;4950157;28;20019;-63
2022/01/25 06:35:06;;;;;;;13.60;5.18;;;3.30;99.90;;;;;;4945839;28;20098;-62
2022/01/25 06:37:33;;;;;;;15.88;3.83;;;3.30;99.90;;;;;;4947705;28;20055;-63
2022/01/25 06:39:59;;;;;;;9.82;3.95;;;3.20;99.90;;;;;;4948695;28;20026;-63
2022/01/25 06:42:28;;;;;;;8.75;3.80;;;3.20;99.90;;;;;;4945404;28;20027;-63
2022/01/25 06:44:56;;;;;;;13.90;4.57;;;3.20;99.90;;;;;;4935225;28;20095;-63
2022/01/25 06:47:22;;;;;;;14.68;4.82;;;3.40;99.90;;;;;;4943832;28;20446;-62
2022/01/25 06:49:48;;;;;;;12.05;5.70;;;3.30;99.90;;;;;;4947643;28;20106;-63
2022/01/25 06:52:13;;;;;;;11.43;4.53;;;3.40;99.90;;;;;;4944242;28;20028;-63
2022/01/25 06:54:39;;;;;;;13.30;5.40;;;3.50;99.90;;;;;;4951034;28;20043;-63
2022/01/25 06:57:05;;;;;;;13.27;5.72;;;3.40;99.90;;;;;;4951962;28;20031;-63
2022/01/25 06:59:30;;;;;;;13.98;5.57;;;3.30;99.90;;;;;;4955997;28;20031;-63
2022/01/25 07:01:56;;;;;;;16.70;4.43;;;3.20;99.90;;;;;;4952071;28;20041;-62
2022/01/25 07:04:21;;;;;;;8.80;4.47;;;3.30;99.90;;;;;;4948665;28;20035;-63
2022/01/25 07:06:47;;;;;;;20.90;4.70;;;3.30;99.90;;;;;;4968251;28;20049;-63
2022/01/25 07:09:13;;;;;;;11.35;4.25;;;3.20;99.90;;;;;;4949280;28;20040;-63
2022/01/25 07:11:38;;;;;;;13.30;4.72;;;3.30;99.90;;;;;;4949650;28;20024;-63
2022/01/25 07:14:04;;;;;;;17.40;5.80;;;3.20;99.90;;;;;;4954426;28;20026;-62
2022/01/25 07:16:30;;;;;;;12.55;6.45;;;3.20;99.90;;;;;;4947455;28;20130;-63
2022/01/25 07:18:56;;;;;;;11.02;4.95;;;3.10;99.90;;;;;;4949041;28;20102;-63
2022/01/25 07:21:21;;;;;;;12.95;5.43;;;3.00;99.90;;;;;;4952202;28;20019;-62
2022/01/25 07:23:47;;;;;;;12.95;4.95;;;3.10;99.90;;;;;;4949101;28;20062;-63
2022/01/25 07:26:13;;;;;;;15.38;5.95;;;3.10;99.90;;;;;;4942997;28;20039;-63
2022/01/25 07:28:38;;;;;;;10.23;4.93;;;3.10;99.90;;;;;;4958389;28;20101;-62
2022/01/25 07:31:04;;;;;;;9.32;4.13;;;3.10;99.90;;;;;;4955117;28;20038;-63
2022/01/25 07:33:30;;;;;;;11.70;4.78;;;3.20;99.90;;;;;;4953826;28;20050;-63
2022/01/25 07:35:56;;;;;;;17.00;6.00;;;3.20;99.90;;;;;;4959099;28;20043;-63
2022/01/25 07:38:22;;;;;;;17.20;5.43;;;3.30;99.90;;;;;;4955255;28;20019;-63
2022/01/25 07:40:48;;;;;;;19.20;6.20;;;3.20;99.90;;;;;;4958185;28;20058;-63
2022/01/25 07:43:14;;;;;;;7.40;3.95;;;3.30;99.90;;;;;;4955890;28;20030;-63
2022/01/25 07:45:41;;;;;;;11.93;5.28;;;3.20;99.90;;;;;;4959506;28;20035;-63
2022/01/25 07:48:09;;;;;;;26.27;5.50;;;3.10;99.90;;;;;;4955799;28;20035;-63
2022/01/25 07:50:36;;;;;;;10.38;5.47;;;3.00;99.90;;;;;;4933233;28;20028;-63
2022/01/25 07:53:02;;;;;;;10.77;4.25;;;3.10;99.90;;;;;;4958988;28;20480;-63
2022/01/25 07:55:28;;;;;;;20.35;5.07;;;3.30;99.90;;;;;;4958708;28;20031;-63
2022/01/25 07:57:53;;;;;;;17.67;6.30;;;3.20;99.90;;;;;;4960376;28;20065;-62
2022/01/25 08:00:19;;;;;;;18.85;6.32;;;3.30;99.90;;;;;;4948664;28;20042;-62
2022/01/25 08:02:46;;;;;;;11.38;5.38;;;3.30;99.90;;;;;;4950452;28;20039;-63
2022/01/25 08:05:13;;;;;;;13.38;5.90;;;3.30;99.90;;;;;;4948647;28;20035;-63
2022/01/25 08:07:39;;;;;;;18.75;5.88;;;3.20;99.90;;;;;;4947800;28;20027;-63
2022/01/25 08:10:05;;;;;;;15.90;4.97;;;3.30;99.90;;;;;;4947800;28;20047;-63
2022/01/25 08:12:31;;;;;;;12.95;5.80;;;3.20;99.90;;;;;;4949751;28;20054;-63
2022/01/25 08:14:57;;;;;;;19.02;6.68;;;3.30;99.90;;;;;;4950120;28;20035;-63
2022/01/25 08:17:23;;;;;;;15.18;4.35;;;3.20;99.90;;;;;;4945518;28;20022;-63
2022/01/25 08:19:49;;;;;;;11.05;4.63;;;3.40;99.90;;;;;;4949804;28;20027;-63
2022/01/25 08:22:14;;;;;;;9.95;4.93;;;3.50;99.90;;;;;;4949196;28;20054;-63
2022/01/25 08:24:40;;;;;;;14.45;5.00;;;3.60;99.90;;;;;;4949755;28;20031;-63
2022/01/25 08:27:06;;;;;;;11.93;4.38;;;3.50;99.90;;;;;;4950272;28;20089;-63
2022/01/25 08:29:31;;;;;;;13.38;6.10;;;3.50;99.90;;;;;;4944848;28;20094;-63
2022/01/25 08:31:57;;;;;;;17.65;7.07;;;3.30;99.90;;;;;;4950552;28;20488;-63
2022/01/25 08:34:23;;;;;;;18.95;5.20;;;3.40;99.90;;;;;;4949934;28;20037;-63
2022/01/25 08:36:48;;;;;;;16.65;5.78;;;3.40;99.90;;;;;;4946724;28;20020;-63
2022/01/25 08:39:14;;;;;;;14.43;5.28;;;3.40;99.90;;;;;;4940659;28;20436;-63
2022/01/25 08:41:40;;;;;;;21.30;6.70;;;3.30;99.90;;;;;;4945000;28;20424;-62
2022/01/25 08:44:06;;;;;;;11.55;4.55;;;3.30;99.90;;;;;;4941984;28;20024;-63
2022/01/25 08:46:33;;;;;;;11.38;5.40;;;3.40;99.90;;;;;;4944937;29;20032;-63
2022/01/25 08:48:59;;;;;;;13.60;5.50;;;3.30;99.90;;;;;;4943168;28;20023;-63
2022/01/25 08:51:25;;;;;;;15.43;6.13;;;3.40;99.90;;;;;;4950388;28;20032;-62
2022/01/25 08:53:51;;;;;;;11.15;4.13;;;3.40;99.90;;;;;;4943393;28;20038;-61
2022/01/25 08:56:16;;;;;;;11.63;4.90;;;3.40;99.90;;;;;;4942876;28;20028;-61
2022/01/25 08:58:42;;;;;;;14.70;6.38;;;3.40;99.90;;;;;;4943879;28;20135;-62
2022/01/25 09:01:08;;;;;;;15.35;4.75;;;3.30;99.90;;;;;;4948164;28;20019;-61
2022/01/25 09:03:33;;;;;;;11.55;3.55;;;3.30;99.90;;;;;;4947159;28;20015;-61
2022/01/25 09:05:59;;;;;;;14.13;6.25;;;3.50;99.90;;;;;;4945726;28;20032;-61
2022/01/25 09:08:28;;;;;;;13.60;5.45;;;3.50;99.90;;;;;;4941461;28;20050;-62
2022/01/25 09:10:58;;;;;;;12.43;5.70;;;3.50;99.90;;;;;;4952108;28;20027;-62
2022/01/25 09:13:25;;;;;;;15.98;5.65;;;3.60;99.90;;;;;;4951210;28;20424;-62
2022/01/25 09:15:51;;;;;;;17.02;5.60;;;3.70;99.90;;;;;;4951631;28;20451;-61
2022/01/25 09:18:17;;;;;;;10.63;5.90;;;3.80;99.90;;;;;;4950832;28;20106;-61
2022/01/25 09:20:43;;;;;;;12.68;4.75;;;3.70;99.90;;;;;;4952337;28;20030;-62
2022/01/25 09:23:09;;;;;;;13.07;6.15;;;3.70;99.90;;;;;;4954045;28;20019;-62
2022/01/25 09:25:35;;;;;;;13.57;4.93;;;3.60;99.90;;;;;;4947255;28;20572;-61
2022/01/25 09:28:01;;;;;;;6.72;3.67;;;3.60;99.90;;;;;;4951232;28;20125;-62
2022/01/25 09:30:28;;;;;;;15.07;4.75;;;3.60;99.90;;;;;;4952236;28;20035;-62
2022/01/25 09:32:54;;;;;;;12.15;5.35;;;3.60;99.90;;;;;;4953909;29;20032;-62
2022/01/25 09:35:20;;;;;;;14.43;4.60;;;3.60;99.90;;;;;;4955186;28;20043;-61
2022/01/25 09:37:45;;;;;;;26.17;6.80;;;3.80;99.90;;;;;;4952192;28;20034;-62
2022/01/25 09:40:12;;;;;;;11.32;4.93;;;3.60;99.90;;;;;;4949184;28;20027;-61
2022/01/25 09:42:39;;;;;;;19.25;8.23;;;3.70;99.90;;;;;;4946389;28;20086;-63
2022/01/25 09:45:05;;;;;;;14.13;5.38;;;3.70;99.90;;;;;;4949606;28;20031;-62
2022/01/25 09:47:31;;;;;;;14.23;6.80;;;3.80;99.90;;;;;;4943007;28;20028;-62
2022/01/25 09:49:56;;;;;;;18.50;6.32;;;3.70;99.90;;;;;;4931019;28;20031;-61
2022/01/25 09:52:22;;;;;;;12.00;5.70;;;3.50;99.90;;;;;;4950143;28;20051;-62
2022/01/25 09:55:01;;;;;;;11.57;6.00;;;3.40;99.90;;;;;;4951136;28;20039;-61
2022/01/25 09:57:27;;;;;;;18.10;7.95;;;3.40;99.90;;;;;;4944576;28;20472;-64
2022/01/25 09:59:54;;;;;;;16.33;5.50;;;3.40;99.90;;;;;;4948619;28;20027;-61
2022/01/25 10:02:40;;;;;;;13.15;6.63;;;3.40;99.90;;;;;;4943791;28;20036;-62
2022/01/25 10:05:17;;;;;;;16.98;7.05;;;3.30;99.90;;;;;;4951723;28;20033;-61
2022/01/25 10:07:53;;;;;;;12.98;5.78;;;3.20;99.90;;;;;;4943076;28;20032;-61
2022/01/25 10:10:19;;;;;;;12.05;5.10;;;3.30;99.90;;;;;;4959470;28;20055;-62
2022/01/25 10:12:45;;;;;;;16.25;4.53;;;3.40;99.90;;;;;;4943443;28;20034;-62
2022/01/25 10:15:11;;;;;;;9.27;4.00;;;3.50;99.90;;;;;;4963273;28;20046;-62
2022/01/25 10:17:37;;;;;;;12.52;4.65;;;3.60;99.90;;;;;;4961888;28;20055;-62
2022/01/25 10:20:04;;;;;;;6.72;3.40;;;3.70;99.90;;;;;;4954940;28;20116;-62
2022/01/25 10:22:46;;;;;;;11.52;4.63;;;3.80;99.90;;;;;;4961535;28;20023;-61
2022/01/25 10:25:11;;;;;;;12.25;5.72;;;3.70;99.90;;;;;;4958516;28;20097;-61
2022/01/25 10:28:01;;;;;;;13.73;4.97;;;3.80;99.90;;;;;;4962649;28;20035;-61
2022/01/25 10:30:31;;;;;;;13.57;6.32;;;3.80;99.90;;;;;;4959773;28;20045;-61
2022/01/25 10:33:00;;;;;;;12.85;4.45;;;3.70;99.90;;;;;;4955272;28;20391;-62
2022/01/25 10:35:25;;;;;;;13.77;5.55;;;3.60;99.90;;;;;;4958374;28;20027;-62
2022/01/25 10:37:51;;;;;;;15.88;5.28;;;3.70;99.90;;;;;;4932746;28;20028;-61
2022/01/25 10:40:35;;;;;;;16.75;5.15;;;3.90;99.90;;;;;;4953752;28;21041;-62
2022/01/25 10:43:01;;;;;;;16.92;5.05;;;4.00;99.90;;;;;;4949374;28;20111;-62
2022/01/25 10:45:26;;;;;;;11.73;5.25;;;4.00;99.90;;;;;;4948199;28;20486;-61
2022/01/25 10:47:55;;;;;;;14.25;4.13;;;4.00;99.90;;;;;;4946689;28;20031;-61
2022/01/25 10:50:35;;;;;;;17.60;6.78;;;4.10;99.90;;;;;;4941986;28;20400;-61
2022/01/25 10:53:09;;;;;;;9.68;4.00;;;3.90;99.90;;;;;;4931339;29;20031;-64
2022/01/25 10:55:44;;;;;;;10.63;3.72;;;3.90;99.90;;;;;;4941859;29;20091;-61
2022/01/25 10:58:10;;;;;;;11.77;5.30;;;3.70;99.90;;;;;;4945165;28;20054;-62
2022/01/25 11:00:41;;;;;;;10.57;3.80;;;3.80;99.90;;;;;;4948276;28;20514;-61
2022/01/25 11:03:07;;;;;;;9.00;3.88;;;3.80;99.90;;;;;;4928989;29;20054;-61
2022/01/25 11:05:43;;;;;;;9.93;4.57;;;3.90;99.90;;;;;;4952876;28;20467;-62
2022/01/25 11:08:14;;;;;;;29.02;17.20;;;3.90;99.90;;;;;;4947079;28;20031;-62
2022/01/25 11:10:51;;;;;;;13.65;5.45;;;3.90;99.90;;;;;;4949153;28;20086;-61
2022/01/25 11:15:57;;;;;;;28.60;19.77;;;4.10;99.90;;;;;;4946049;28;20416;-61
2022/01/25 11:18:22;;;;;;;21.50;12.43;;;4.30;99.90;;;;;;4948999;28;20035;-61
2022/01/25 11:20:50;;;;;;;14.40;9.38;;;4.20;99.90;;;;;;4950823;28;20030;-62
2022/01/25 11:23:17;;;;;;;17.63;7.03;;;4.20;99.90;;;;;;4947929;28;20496;-62
2022/01/25 11:25:44;;;;;;;41.63;27.52;;;4.20;99.90;;;;;;4949668;28;20085;-61
2022/01/25 11:28:11;;;;;;;26.05;12.85;;;4.40;99.90;;;;;;4945048;28;20048;-62
2022/01/25 11:30:40;;;;;;;11.20;4.57;;;4.40;99.90;;;;;;4947054;28;20058;-62
2022/01/25 11:33:09;;;;;;;17.95;5.18;;;4.40;99.90;;;;;;4948270;28;20034;-62
2022/01/25 11:35:35;;;;;;;20.75;5.53;;;4.30;99.90;;;;;;4947621;28;20016;-62
2022/01/25 11:38:01;;;;;;;23.02;5.38;;;4.30;99.90;;;;;;4944450;28;20127;-61
2022/01/25 11:40:34;;;;;;;10.23;4.32;;;4.20;99.90;;;;;;4941303;28;20114;-61
2022/01/25 11:43:02;;;;;;;9.77;4.07;;;4.20;99.90;;;;;;4949691;28;20031;-61
2022/01/25 11:45:35;;;;;;;15.27;4.25;;;4.10;99.90;;;;;;4921459;28;20039;-61
2022/01/25 11:48:01;;;;;;;6.90;3.55;;;4.00;99.90;;;;;;4946153;28;20122;-62
2022/01/25 11:50:32;;;;;;;8.50;3.40;;;4.00;99.90;;;;;;4949600;29;20034;-62
2022/01/25 11:53:06;;;;;;;12.52;4.07;;;4.00;99.90;;;;;;4948117;28;20491;-63
2022/01/25 11:55:53;;;;;;;8.75;3.78;;;3.90;99.90;;;;;;4922309;28;20380;-63
2022/01/25 11:58:21;;;;;;;19.90;4.68;;;4.00;99.90;;;;;;4944447;28;20397;-63
2022/01/25 12:00:49;;;;;;;10.23;3.60;;;3.90;99.90;;;;;;4944490;28;20584;-63
2022/01/25 12:03:35;;;;;;;11.20;4.20;;;3.90;99.90;;;;;;4942290;28;20027;-63
2022/01/25 12:06:14;;;;;;;12.75;4.70;;;3.80;99.90;;;;;;4943603;28;20388;-63
2022/01/25 12:08:52;;;;;;;13.27;3.35;;;3.80;99.90;;;;;;4946368;28;20584;-63
2022/01/25 12:11:35;;;;;;;8.43;2.95;;;3.80;99.90;;;;;;4947375;28;20036;-63
2022/01/25 12:14:24;;;;;;;11.32;3.47;;;3.80;99.90;;;;;;4947672;28;20027;-63
2022/01/25 12:16:55;;;;;;;10.23;3.97;;;3.70;99.90;;;;;;4945423;28;20059;-63
2022/01/25 12:19:44;;;;;;;6.25;3.22;;;3.90;99.90;;;;;;4949916;28;20496;-64
2022/01/25 12:22:17;;;;;;;11.63;2.58;;;3.70;99.90;;;;;;4946329;28;20050;-63
2022/01/25 12:24:44;;;;;;;17.92;4.90;;;3.90;99.90;;;;;;4947038;28;20040;-63
2022/01/25 12:30:12;;;;;;;12.07;3.08;;;3.90;99.90;;;;;;4945212;28;20035;-63
2022/01/25 12:32:43;;;;;;;;;;;4.10;99.90;;;;;;4943465;28;20126;-64
2022/01/25 12:35:14;;;;;;;4.70;2.63;;;4.10;99.90;;;;;;4946069;28;19921;-63
2022/01/25 12:37:42;;;;;;;9.20;3.28;;;3.80;99.90;;;;;;4941552;28;20023;-63
2022/01/25 12:40:26;;;;;;;10.15;3.60;;;4.00;99.90;;;;;;4936385;28;20024;-63
2022/01/25 12:43:00;;;;;;;3.90;2.00;;;3.90;99.90;;;;;;4947514;28;20020;-63
2022/01/25 12:45:49;;;;;;;14.98;4.72;;;4.00;99.90;;;;;;4942397;28;20034;-63
2022/01/25 12:48:19;;;;;;;11.55;4.25;;;4.10;99.90;;;;;;4956350;28;20467;-63
2022/01/25 12:50:50;;;;;;;5.95;3.15;;;3.90;99.90;;;;;;4952178;28;20019;-63
2022/01/25 12:53:22;;;;;;;11.88;3.83;;;3.90;99.90;;;;;;4951646;28;20031;-63
2022/01/25 12:55:51;;;;;;;10.88;3.92;;;3.80;99.90;;;;;;4946451;28;20126;-63
2022/01/25 12:58:28;;;;;;;5.50;2.17;;;3.60;99.90;;;;;;4947981;28;20019;-63
2022/01/25 13:00:56;;;;;;;8.50;3.55;;;3.60;99.90;;;;;;4944985;28;20396;-63
2022/01/25 13:03:32;;;;;;;8.85;3.78;;;3.60;99.90;;;;;;4945431;28;20106;-63
2022/01/25 13:06:05;;;;;;;8.35;2.70;;;3.50;99.90;;;;;;4947708;28;20038;-63
2022/01/25 13:08:56;;;;;;;4.78;2.65;;;3.70;99.90;;;;;;4948162;28;20035;-63
2022/01/25 13:17:06;;;;;;;7.63;3.13;;;3.70;99.90;;;;;;4950224;28;20558;-63
2022/01/25 13:19:41;;;;;;;7.72;3.35;;;3.70;99.90;;;;;;4946330;28;20091;-63
2022/01/25 13:22:12;;;;;;;17.98;4.88;;;3.70;99.90;;;;;;4948819;28;20039;-63
2022/01/25 13:25:31;;;;;;;6.00;2.53;;;3.60;99.90;;;;;;4949124;28;20032;-63
2022/01/25 13:27:35;;;;;;;17.37;3.70;;;3.70;99.90;;;;;;4933901;28;20578;-63
2022/01/25 13:32:50;;;;;;;9.80;2.75;;;3.80;99.90;;;;;;4941919;28;20113;-63
2022/01/25 13:35:27;;;;;;;11.10;2.42;;;3.80;99.90;;;;;;4945979;28;20046;-63
2022/01/25 13:38:05;;;;;;;7.22;3.17;;;3.80;99.90;;;;;;4929911;29;20135;-63
2022/01/25 13:40:43;;;;;;;10.38;2.70;;;3.80;99.90;;;;;;4950278;28;20015;-63
2022/01/25 13:45:53;;;;;;;13.55;3.47;;;3.90;99.90;;;;;;4945865;28;20534;-63
2022/01/25 13:48:21;;;;;;;6.85;2.67;;;3.70;99.90;;;;;;4948030;28;20114;-63
2022/01/25 13:50:51;;;;;;;6.20;3.80;;;3.60;99.90;;;;;;4943986;28;20031;-63
2022/01/25 13:53:17;;;;;;;;;;;3.70;99.90;;;;;;4946783;28;20126;-63
2022/01/25 13:55:55;;;;;;;17.70;3.28;;;3.80;99.90;;;;;;4941607;28;20012;-63
2022/01/25 13:58:23;;;;;;;9.38;4.18;;;3.60;99.90;;;;;;4948072;28;20027;-63
2022/01/25 14:00:50;;;;;;;6.38;2.97;;;3.60;99.90;;;;;;4944246;28;20020;-63
2022/01/25 14:03:17;;;;;;;6.88;2.58;;;3.60;99.90;;;;;;4949903;28;20019;-63
2022/01/25 14:05:43;;;;;;;6.50;2.67;;;3.50;99.90;;;;;;4947949;28;20031;-63
2022/01/25 14:08:09;;;;;;;12.10;4.20;;;3.60;99.90;;;;;;4948276;28;20035;-63
2022/01/25 14:10:35;;;;;;;5.10;3.03;;;3.40;99.90;;;;;;4949959;28;20026;-63
2022/01/25 14:24:06;;;;;;;8.70;2.50;;;3.50;99.90;;;;;;4946819;28;20420;-63
2022/01/25 14:26:32;;;;;;;2.47;1.92;;;3.60;99.90;;;;;;4944544;28;20039;-63
2022/01/25 14:29:13;;;;;;;8.18;4.00;;;3.60;99.90;;;;;;4946687;28;20060;-63
2022/01/25 14:31:42;;;;;;;10.80;4.95;;;3.60;99.90;;;;;;4943534;28;20034;-63
2022/01/25 14:34:10;;;;;;;5.78;2.33;;;3.50;99.90;;;;;;4946790;28;20495;-63
2022/01/25 14:36:39;;;;;;;7.70;3.28;;;3.60;99.90;;;;;;4949630;28;20027;-63
2022/01/25 14:39:06;;;;;;;12.18;4.63;;;3.60;99.90;;;;;;4945480;28;20477;-62
2022/01/25 14:41:33;;;;;;;10.82;3.65;;;3.60;99.90;;;;;;4926803;28;20401;-63
2022/01/25 14:44:07;;;;;;;13.43;3.35;;;3.50;99.90;;;;;;4946875;28;20563;-63
2022/01/25 14:46:48;;;;;;;6.30;2.25;;;3.60;99.90;;;;;;4949109;28;20031;-63
2022/01/25 14:49:26;;;;;;;6.53;2.78;;;3.50;99.90;;;;;;4945439;28;20031;-64
2022/01/25 14:51:59;;;;;;;5.75;3.25;;;3.50;99.90;;;;;;4951482;28;20496;-63
2022/01/25 14:54:27;;;;;;;5.82;3.08;;;3.40;99.90;;;;;;4948343;28;20087;-62
2022/01/25 14:56:56;;;;;;;5.30;2.50;;;3.50;99.90;;;;;;4943567;28;20024;-63
2022/01/25 14:59:29;;;;;;;5.38;1.73;;;3.40;99.90;;;;;;4953766;28;20395;-63
2022/01/25 15:02:03;;;;;;;8.45;2.83;;;3.30;99.90;;;;;;4957264;28;20019;-63
2022/01/25 15:04:37;;;;;;;11.02;4.22;;;3.20;99.90;;;;;;4951081;28;20118;-63
2022/01/25 15:07:04;;;;;;;9.55;4.20;;;3.40;99.90;;;;;;4958618;28;21646;-63
2022/01/25 15:09:29;;;;;;;11.25;2.70;;;3.30;99.90;;;;;;4959148;28;20023;-63
2022/01/25 15:11:55;;;;;;;14.30;3.30;;;3.30;99.90;;;;;;4946597;28;20479;-63
2022/01/25 15:14:23;;;;;;;10.23;4.38;;;3.30;99.90;;;;;;4947457;28;20030;-62
2022/01/25 15:16:49;;;;;;;23.52;3.15;;;3.40;99.90;;;;;;4949599;28;20028;-63